Decoded Metar for LEVT (VITORIA in SPAIN) (IATA:VIT) | Meteo·Mobile Aviation Weather
aviador You're here:

LEVT Decoded Metar

VITORIA in SPAIN
Report Time2019-07-23 02:00:00
UTC Time2019-07-23 02:36:04
Flight Rules vfr VFR
Wind080° at 04 kt
W.Decomp.*RWY 04: 3.0 kt HW 2.7 kt RCW
Visibility9999 m
Phenomena:N/A
Clouds:N/A
Expected CloudBase > 800 ft AGL from Temp-Dew spread
CeilingNone
Temp18°C (ISA +6)
Dew Point16°C (88% RH)
QNH1019 hPa
Density Alt2,457 ft
Elevation1,670 ft
Report Wrong Elevation
Raw Report
LEVT 230200Z 08004KT CAVOK 18/16 Q1019=

Extra information for LEVT:More info

Metar Taf Metar & Taf Last 4 Metars F.Rules Stats Wind Profile Meteogram Temp Stats Airport Information Weather charts Add Link Nearby VenuesMetar ALERT Operation Metar Decoded Social comments